createdAt,value
2023-08-11T03:58:43.612Z,100898.91
2023-08-11T04:01:46.265Z,100900.63
2023-08-11T04:04:48.853Z,100902.53
2023-08-11T04:07:51.087Z,100913.84
2023-08-11T04:10:54.758Z,100905.94
2023-08-11T04:13:57.009Z,100909.38
2023-08-11T04:16:59.600Z,100912.81
2023-08-11T04:20:02.240Z,100915.59
2023-08-11T04:23:04.974Z,100921.78
2023-08-11T04:26:07.704Z,100924.41
2023-08-11T04:29:10.352Z,100927.03
2023-08-11T04:32:12.769Z,100926.19
2023-08-11T04:35:15.464Z,100927.09
2023-08-11T04:38:18.298Z,100922.72
2023-08-11T04:41:21.114Z,100925.37
2023-08-11T04:44:23.357Z,100927.12
2023-08-11T04:47:26.109Z,100928.97
2023-08-11T04:50:28.850Z,100935.97
2023-08-11T04:53:31.941Z,100944.00
2023-08-11T04:56:34.208Z,100940.59
2023-08-11T04:59:38.602Z,100947.66
2023-08-11T05:02:43.010Z,100945.97
2023-08-11T05:05:46.254Z,100947.03
2023-08-11T05:08:48.727Z,100955.03
2023-08-11T05:11:51.207Z,100949.78
2023-08-11T05:14:53.377Z,100956.91
2023-08-11T05:17:55.948Z,100959.59
2023-08-11T05:20:58.149Z,100962.31
2023-08-11T05:24:00.605Z,100960.66
2023-08-11T05:27:02.774Z,100964.22
2023-08-11T05:30:05.729Z,100962.56
2023-08-11T05:33:08.114Z,100964.34
2023-08-11T05:36:10.612Z,100967.03
2023-08-11T05:39:13.851Z,100965.28
2023-08-11T05:42:16.288Z,100969.66
2023-08-11T05:45:18.707Z,100969.72
2023-08-11T05:48:21.313Z,100969.69
2023-08-11T05:51:23.527Z,100960.91
2023-08-11T05:54:26.025Z,100960.00
2023-08-11T05:57:28.325Z,100953.84
2023-08-11T06:00:30.888Z,100962.66
2023-08-11T06:03:36.725Z,100955.59
2023-08-11T06:06:44.091Z,100959.94
2023-08-11T06:09:51.242Z,100953.75
2023-08-11T06:12:56.305Z,100959.00
2023-08-11T06:15:58.875Z,100974.81
2023-08-11T06:19:01.146Z,100971.22
2023-08-11T06:22:03.790Z,100974.75
2023-08-11T06:25:07.281Z,100973.84
2023-08-11T06:28:09.825Z,100972.03
2023-08-11T06:31:12.121Z,100973.78
2023-08-11T06:34:18.191Z,100974.62
2023-08-11T06:37:20.394Z,100977.22
2023-08-11T06:40:22.871Z,100977.16
2023-08-11T06:43:25.015Z,100982.34
2023-08-11T06:46:27.495Z,100982.19
2023-08-11T06:49:29.728Z,100979.44
2023-08-11T06:52:32.315Z,100980.31
2023-08-11T06:55:34.458Z,100981.03
2023-08-11T06:58:36.916Z,100978.31
2023-08-11T07:01:39.088Z,100988.00
2023-08-11T07:04:41.591Z,100996.72
2023-08-11T07:07:43.794Z,100988.75
2023-08-11T07:10:46.240Z,100989.59
2023-08-11T07:13:48.450Z,100990.38
2023-08-11T07:16:51.190Z,100988.59
2023-08-11T07:19:53.387Z,100986.75
2023-08-11T07:22:55.829Z,100993.63
2023-08-11T07:25:58.055Z,100993.53
2023-08-11T07:29:00.514Z,100994.34
2023-08-11T07:32:05.027Z,100989.09
2023-08-11T07:35:07.825Z,100987.22
2023-08-11T07:38:12.215Z,100991.56
2023-08-11T07:41:15.091Z,100990.47
2023-08-11T07:44:17.358Z,100990.34
2023-08-11T07:47:20.476Z,100997.25
2023-08-11T07:50:22.755Z,100991.72
2023-08-11T07:53:25.345Z,100998.75
2023-08-11T07:56:28.257Z,100995.25
2023-08-11T07:59:30.966Z,100997.88
2023-08-11T08:02:33.252Z,100998.56
2023-08-11T08:05:35.727Z,100994.91
2023-08-11T08:08:37.927Z,100994.81
2023-08-11T08:11:40.381Z,100994.69
2023-08-11T08:14:43.708Z,100998.78
2023-08-11T08:17:46.449Z,100998.66
2023-08-11T08:20:48.689Z,101002.00
2023-08-11T08:23:51.205Z,100996.31
2023-08-11T08:26:53.541Z,101001.56
2023-08-11T08:29:56.220Z,100996.34
2023-08-11T08:32:58.604Z,101001.28
2023-08-11T08:36:01.067Z,100998.50
2023-08-11T08:39:03.765Z,100998.19
2023-08-11T08:42:07.499Z,100992.75
2023-08-11T08:45:10.017Z,100997.00
2023-08-11T08:48:26.917Z,101005.69
2023-08-11T08:51:30.554Z,101000.25
2023-08-11T08:54:34.362Z,101000.31
2023-08-11T08:57:37.478Z,101002.84
2023-08-11T09:00:40.884Z,101002.91
2023-08-11T09:03:44.616Z,101006.28
2023-08-11T09:06:47.512Z,100994.47
2023-08-11T09:09:49.829Z,101003.09
2023-08-11T09:12:52.744Z,101000.53
2023-08-11T09:15:55.658Z,101003.19
2023-08-11T09:18:58.568Z,101005.59
2023-08-11T09:22:00.736Z,101000.16
2023-08-11T09:25:05.060Z,100997.31
2023-08-11T09:28:07.552Z,100994.31
2023-08-11T09:31:10.003Z,100996.69
2023-08-11T09:34:17.834Z,100985.72
2023-08-11T09:37:20.391Z,100995.28
2023-08-11T09:40:23.706Z,100984.72
2023-08-11T09:43:26.195Z,100990.13
2023-08-11T09:46:29.648Z,100992.84
2023-08-11T09:49:32.329Z,100988.28
2023-08-11T09:52:36.994Z,100988.75
2023-08-11T09:55:41.897Z,100992.31
2023-08-11T09:58:46.979Z,100989.25
2023-08-11T10:01:54.246Z,100983.53
2023-08-11T10:05:03.378Z,100987.84
2023-08-11T10:08:07.561Z,100982.91
2023-08-11T10:11:12.475Z,100975.16
2023-08-11T10:14:19.485Z,100973.84
2023-08-11T10:17:23.382Z,100974.41
2023-08-11T10:20:26.898Z,100974.91
2023-08-11T10:23:30.554Z,100974.44
2023-08-11T10:26:33.516Z,100965.03
2023-08-11T10:29:38.189Z,100972.84
2023-08-11T10:32:40.425Z,100966.09
2023-08-11T10:35:53.361Z,100971.00
2023-08-11T10:39:06.930Z,100962.78
2023-08-11T10:42:15.565Z,100967.91
2023-08-11T10:45:22.499Z,100956.34
2023-08-11T10:48:25.053Z,100955.91
2023-08-11T10:51:33.497Z,100957.25
2023-08-11T10:54:35.977Z,100951.13
2023-08-11T10:57:38.134Z,100957.06
2023-08-11T11:00:41.672Z,100944.84
2023-08-11T11:03:48.412Z,100936.06
2023-08-11T11:06:52.794Z,100945.03
2023-08-11T11:09:54.984Z,100950.13
2023-08-11T11:12:57.407Z,100938.34
2023-08-11T11:15:59.628Z,100940.19
2023-08-11T11:19:03.430Z,100941.31
2023-08-11T11:22:08.078Z,100947.84
2023-08-11T11:25:11.654Z,100946.41
2023-08-11T11:28:13.922Z,100949.31
2023-08-11T11:31:17.641Z,100952.34
2023-08-11T11:34:20.896Z,100947.00
2023-08-11T11:37:23.380Z,100940.50
2023-08-11T11:40:25.821Z,100938.22
2023-08-11T11:43:28.838Z,100944.94
2023-08-11T11:46:33.544Z,100941.94
2023-08-11T11:49:37.039Z,100937.28
2023-08-11T11:52:43.943Z,100937.19
2023-08-11T11:55:48.063Z,100939.63
2023-08-11T11:58:50.925Z,100943.19
2023-08-11T12:01:53.957Z,100946.53
2023-08-11T12:04:59.868Z,100950.41
2023-08-11T12:08:20.640Z,100947.62
2023-08-11T12:11:25.656Z,100942.28
2023-08-11T12:14:28.770Z,100940.31
2023-08-11T12:17:32.609Z,100944.09
2023-08-11T12:20:38.020Z,100939.63
2023-08-11T12:23:40.511Z,100932.37
2023-08-11T12:26:42.729Z,100922.31
2023-08-11T12:29:45.207Z,100936.62
2023-08-11T12:32:47.473Z,100937.09
2023-08-11T12:35:50.154Z,100939.63
2023-08-11T12:38:52.385Z,100944.59
2023-08-11T12:41:54.854Z,100943.41
2023-08-11T12:44:57.059Z,100946.19
2023-08-11T12:47:59.526Z,100944.03
2023-08-11T12:51:02.334Z,100937.88
2023-08-11T12:54:04.840Z,100938.87
2023-08-11T12:57:07.075Z,100935.81
2023-08-11T13:00:11.472Z,100940.09
2023-08-11T13:03:13.978Z,100935.59
2023-08-11T13:06:16.629Z,100925.50
2023-08-11T13:09:19.131Z,100934.56
2023-08-11T13:12:21.555Z,100929.44
2023-08-11T13:15:24.577Z,100925.66
2023-08-11T13:18:27.060Z,100924.78
2023-08-11T13:21:29.295Z,100921.28
2023-08-11T13:24:34.460Z,100928.94
2023-08-11T13:27:37.825Z,100934.66
2023-08-11T13:30:43.549Z,100925.37
2023-08-11T13:33:46.011Z,100925.00
2023-08-11T13:39:50.757Z,100919.69
2023-08-11T13:42:53.211Z,100921.87
2023-08-11T13:45:55.452Z,100920.38
2023-08-11T13:48:58.089Z,100921.00
2023-08-11T13:52:00.387Z,100914.47
2023-08-11T13:55:06.596Z,100917.88
2023-08-11T13:58:10.067Z,100909.34
2023-08-11T14:01:13.422Z,100910.91
2023-08-11T14:04:15.910Z,100910.16
2023-08-11T14:07:30.738Z,100913.28
2023-08-11T14:10:35.961Z,100908.28
2023-08-11T14:13:38.214Z,100919.00
2023-08-11T14:16:40.687Z,100911.41
2023-08-11T14:19:42.926Z,100910.75
2023-08-11T14:22:45.519Z,100913.31
2023-08-11T14:25:48.040Z,100915.81
2023-08-11T14:28:50.462Z,100904.81
2023-08-11T14:31:52.683Z,100902.16
2023-08-11T14:34:55.181Z,100896.06
2023-08-11T14:37:59.474Z,100902.03
2023-08-11T14:41:03.193Z,100910.50
2023-08-11T14:44:05.517Z,100902.69
2023-08-11T14:47:14.819Z,100901.37
2023-08-11T14:50:17.964Z,100902.50
2023-08-11T14:53:24.832Z,100904.41
2023-08-11T14:56:29.122Z,100902.25
